Aeroporto :
LOGIN :

Iscrizione | Disclaimer

   EN    FR    IT 

 










Sommario :    VFR   VFR Marginale   IFR   IFR Intensivo   IFR Molto Intensivo
Visibilità : 
Base nubi : 
>= 8 km
>= 3000ft
5 / 8 km
1000 / 3000 ft
1500m / 5 km
500 / 1000 ft
800 / 1500m
200 / 500 ft
< 800m
< 200 ft
Simboli :   Temporali  Nebbia  Neve Forte  Precipitazioni Forti  Vento > 20 kt
SIGMETs :   Varie  Temporali  Ghiacco  Turbolenza  Onda orograficha  Ceneri Vulcaniche






- Altitudine del aeroporto : 1363 ft


ETIC - Grafenwohr Army Air Field

ULTIMO METAR :
  • 110356Z AUTO 00000KT 9999 OVC050 13/13 A3008 RMK AO2 RAE02DZB02E06RAB13E14DZB14E24RAB27E45DZB45E48 SLP176 P0000 T01310131 $

METARs OBSOLETI :
  • 110348Z AUTO 00000KT 9999 BKN050 OVC070 13/13 A3008 RMK AO2 RAE02DZB02E06RAB13E14DZB14E24RAB27E45DZB45E48 SLP176 $
  • 110327Z AUTO 29003KT 9999 -RA FEW055 OVC070 13/13 A3008 RMK AO2 RAE02DZB02E06RAB13E14DZB14E24RAB27 SLP176 $
  • 110313Z AUTO 00000KT 9999 -RA BKN070 13/13 A3006 RMK AO2 RAE02DZB02E06RAB13 SLP169 $
  • 110306Z AUTO 00000KT 9999 BKN070 13/13 A3007 RMK AO2 RAE02DZB02E06 SLP172 $
  • 110256Z AUTO 00000KT 9999 -RA SCT070 13/13 A3007 RMK AO2 SLP171 P0001 60001 T01340134 53002 $
  • 110156Z AUTO 00000KT 9999 -RA BKN070 OVC080 15/12 A3007 RMK AO2 DZB38E49RAB49 SLP167 P0000 T01470124 $
  • 110138Z AUTO 00000KT 9999 -DZ BKN090 15/11 A3007 RMK AO2 DZB38 SLP167 $

TAF TAF ETIC
Valido dal 11 a 02 ore il 12 a 08 ore UTC


110200Z 1102/1208 VRB06KT 8000 -DZ FEW030 SCT060 QNH3007INS
TEMPO 1102/1108 6000 -SHRA BR BKN060
BECMG 1107/1108 VRB06KT 9999 FEW030 BKN050 QNH3011INS
TEMPO 1108/1115 27012KT 8000 -SHRA BKN030
BECMG 1116/1117 VRB06KT 9999 FEW030 SCT050 QNH3018INS TX22/1113Z TN12/1104Z



MetMap, La meteo Aeronautica in un colpo d'occhio ! - Copyright ORBIFLY Dicembre 2007 - Disclaimer

ORBIFLY MET'MAP TEAM :

Programmazione e sviluppo : Alexandra Zaïnal
Concezione : Baudouin d'Aumeries
Aiuto per la programmazione : Marc-Olivier Méhu
Supporto tecnico e logistico : Manuel Goepfert
Aiuto per la traduzione : Arnaldo La Scala

Contatto : metmap@orbifly.com




FONTI E CREDITI :

   NOAA